sensor_id;sensor_type;location;lat;lon;timestamp;pressure;altitude;pressure_sealevel;temperature;humidity
64298;BME280;50639;53.270;7.956;2023-01-29T00:00:04;104802.19;;;4.35;100.00
64298;BME280;50639;53.270;7.956;2023-01-29T00:02:37;104783.44;;;4.37;100.00
64298;BME280;50639;53.270;7.956;2023-01-29T00:05:04;104764.69;;;4.38;100.00
64298;BME280;50639;53.270;7.956;2023-01-29T00:07:31;104832.78;;;4.44;100.00
64298;BME280;50639;53.270;7.956;2023-01-29T00:09:56;104906.19;;;4.49;100.00
64298;BME280;50639;53.270;7.956;2023-01-29T00:12:22;104984.88;;;4.56;100.00
64298;BME280;50639;53.270;7.956;2023-01-29T00:14:47;104849.09;;;4.53;100.00
64298;BME280;50639;53.270;7.956;2023-01-29T00:17:13;104910.28;;;4.55;100.00
64298;BME280;50639;53.270;7.956;2023-01-29T00:19:38;104887.16;;;4.55;100.00
64298;BME280;50639;53.270;7.956;2023-01-29T00:22:04;104824.22;;;4.53;100.00
64298;BME280;50639;53.270;7.956;2023-01-29T00:24:29;104702.09;;;4.45;100.00
64298;BME280;50639;53.270;7.956;2023-01-29T00:26:55;104700.38;;;4.44;100.00
64298;BME280;50639;53.270;7.956;2023-01-29T00:29:20;104743.00;;;4.44;100.00
64298;BME280;50639;53.270;7.956;2023-01-29T00:31:46;104737.66;;;4.44;100.00
64298;BME280;50639;53.270;7.956;2023-01-29T00:34:11;104741.31;;;4.43;100.00
64298;BME280;50639;53.270;7.956;2023-01-29T00:36:37;104901.63;;;4.51;100.00
64298;BME280;50639;53.270;7.956;2023-01-29T00:39:02;104874.19;;;4.49;100.00
64298;BME280;50639;53.270;7.956;2023-01-29T00:41:35;104876.84;;;4.49;100.00
64298;BME280;50639;53.270;7.956;2023-01-29T00:44:19;104755.56;;;4.42;100.00
64298;BME280;50639;53.270;7.956;2023-01-29T00:47:04;104853.03;;;4.46;100.00
64298;BME280;50639;53.270;7.956;2023-01-29T00:49:53;104778.72;;;4.42;100.00
64298;BME280;50639;53.270;7.956;2023-01-29T00:52:19;104814.97;;;4.44;100.00
64298;BME280;50639;53.270;7.956;2023-01-29T00:54:52;104901.00;;;4.46;100.00
64298;BME280;50639;53.270;7.956;2023-01-29T00:57:17;104821.25;;;4.43;100.00
64298;BME280;50639;53.270;7.956;2023-01-29T00:59:43;104782.22;;;4.42;100.00
64298;BME280;50639;53.270;7.956;2023-01-29T01:02:08;104756.63;;;4.40;100.00
64298;BME280;50639;53.270;7.956;2023-01-29T01:04:52;104682.28;;;4.35;100.00
64298;BME280;50639;53.270;7.956;2023-01-29T01:07:18;104840.84;;;4.42;100.00
64298;BME280;50639;53.270;7.956;2023-01-29T01:09:43;104734.63;;;4.36;100.00
64298;BME280;50639;53.270;7.956;2023-01-29T01:12:28;104846.16;;;4.42;100.00
64298;BME280;50639;53.270;7.956;2023-01-29T01:14:53;104863.91;;;4.43;100.00
64298;BME280;50639;53.270;7.956;2023-01-29T01:17:18;104774.41;;;4.39;100.00
64298;BME280;50639;53.270;7.956;2023-01-29T01:19:44;104869.22;;;4.43;100.00
64298;BME280;50639;53.270;7.956;2023-01-29T01:22:10;104843.50;;;4.42;100.00
64298;BME280;50639;53.270;7.956;2023-01-29T01:24:36;104858.56;;;4.43;100.00
64298;BME280;50639;53.270;7.956;2023-01-29T01:27:02;104903.78;;;4.45;100.00
64298;BME280;50639;53.270;7.956;2023-01-29T01:29:28;104960.41;;;4.48;100.00
64298;BME280;50639;53.270;7.956;2023-01-29T01:31:53;104988.81;;;4.49;100.00
64298;BME280;50639;53.270;7.956;2023-01-29T01:34:19;104944.44;;;4.48;100.00
64298;BME280;50639;53.270;7.956;2023-01-29T01:36:46;104909.97;;;4.45;100.00
64298;BME280;50639;53.270;7.956;2023-01-29T01:39:12;105017.16;;;4.50;100.00
64298;BME280;50639;53.270;7.956;2023-01-29T01:41:37;104913.41;;;4.47;100.00
64298;BME280;50639;53.270;7.956;2023-01-29T01:44:03;105049.97;;;4.52;100.00
64298;BME280;50639;53.270;7.956;2023-01-29T01:46:31;104964.81;;;4.49;100.00
64298;BME280;50639;53.270;7.956;2023-01-29T01:49:03;105049.00;;;4.53;100.00
64298;BME280;50639;53.270;7.956;2023-01-29T01:51:32;104959.50;;;4.49;100.00
64298;BME280;50639;53.270;7.956;2023-01-29T01:54:17;105002.91;;;4.51;100.00
64298;BME280;50639;53.270;7.956;2023-01-29T01:56:49;104848.78;;;4.44;100.00
64298;BME280;50639;53.270;7.956;2023-01-29T01:59:18;104917.00;;;4.46;100.00
64298;BME280;50639;53.270;7.956;2023-01-29T02:01:47;104870.09;;;4.44;100.00
64298;BME280;50639;53.270;7.956;2023-01-29T02:04:19;104951.59;;;4.48;100.00
64298;BME280;50639;53.270;7.956;2023-01-29T02:07:07;104987.84;;;4.50;100.00
64298;BME280;50639;53.270;7.956;2023-01-29T02:09:58;105103.09;;;4.55;100.00
64298;BME280;50639;53.270;7.956;2023-01-29T02:12:25;105080.84;;;4.56;100.00
64298;BME280;50639;53.270;7.956;2023-01-29T02:14:53;105008.25;;;4.51;100.00
64298;BME280;50639;53.270;7.956;2023-01-29T02:17:18;104938.16;;;4.49;100.00
64298;BME280;50639;53.270;7.956;2023-01-29T02:25:45;104841.59;;;4.44;100.00
64298;BME280;50639;53.270;7.956;2023-01-29T02:31:15;104923.09;;;4.48;100.00
64298;BME280;50639;53.270;7.956;2023-01-29T02:34:16;104880.56;;;4.47;100.00
64298;BME280;50639;53.270;7.956;2023-01-29T02:37:00;104961.19;;;4.50;100.00
64298;BME280;50639;53.270;7.956;2023-01-29T02:39:32;105037.41;;;4.54;100.00
64298;BME280;50639;53.270;7.956;2023-01-29T02:44:39;104946.94;;;4.51;100.00
64298;BME280;50639;53.270;7.956;2023-01-29T02:47:32;104780.31;;;4.44;100.00
64298;BME280;50639;53.270;7.956;2023-01-29T02:50:05;104729.88;;;4.41;100.00
64298;BME280;50639;53.270;7.956;2023-01-29T02:55:31;104637.16;;;4.32;100.00
64298;BME280;50639;53.270;7.956;2023-01-29T02:58:07;104608.81;;;4.31;100.00
64298;BME280;50639;53.270;7.956;2023-01-29T03:00:39;104593.00;;;4.28;100.00
64298;BME280;50639;53.270;7.956;2023-01-29T03:08:57;104639.81;;;4.32;100.00
64298;BME280;50639;53.270;7.956;2023-01-29T03:11:28;104632.69;;;4.33;100.00
64298;BME280;50639;53.270;7.956;2023-01-29T03:13:59;104684.94;;;4.35;100.00
64298;BME280;50639;53.270;7.956;2023-01-29T03:19:32;104507.69;;;4.30;100.00
64298;BME280;50639;53.270;7.956;2023-01-29T03:22:06;104533.34;;;4.31;100.00
64298;BME280;50639;53.270;7.956;2023-01-29T03:24:48;104534.22;;;4.31;100.00
64298;BME280;50639;53.270;7.956;2023-01-29T03:28:00;104427.06;;;4.26;100.00
64298;BME280;50639;53.270;7.956;2023-01-29T03:30:53;104372.22;;;4.23;100.00
64298;BME280;50639;53.270;7.956;2023-01-29T03:33:57;104433.16;;;4.28;100.00
64298;BME280;50639;53.270;7.956;2023-01-29T03:36:37;104410.16;;;4.27;100.00
64298;BME280;50639;53.270;7.956;2023-01-29T03:39:12;104517.19;;;4.34;100.00
64298;BME280;50639;53.270;7.956;2023-01-29T03:44:59;104567.31;;;4.41;100.00
64298;BME280;50639;53.270;7.956;2023-01-29T03:53:16;104463.28;;;4.43;100.00
64298;BME280;50639;53.270;7.956;2023-01-29T03:56:32;104504.88;;;4.45;100.00
64298;BME280;50639;53.270;7.956;2023-01-29T03:59:05;104466.59;;;4.46;100.00
64298;BME280;50639;53.270;7.956;2023-01-29T04:02:08;104458.53;;;4.48;100.00
64298;BME280;50639;53.270;7.956;2023-01-29T04:04:37;104528.38;;;4.53;100.00
64298;BME280;50639;53.270;7.956;2023-01-29T04:07:12;104503.34;;;4.55;100.00
64298;BME280;50639;53.270;7.956;2023-01-29T04:09:45;104536.94;;;4.58;100.00
64298;BME280;50639;53.270;7.956;2023-01-29T04:12:14;104429.69;;;4.54;100.00
64298;BME280;50639;53.270;7.956;2023-01-29T04:14:42;104493.44;;;4.57;100.00
64298;BME280;50639;53.270;7.956;2023-01-29T04:17:14;104481.84;;;4.58;100.00
64298;BME280;50639;53.270;7.956;2023-01-29T04:19:48;104559.69;;;4.63;100.00
64298;BME280;50639;53.270;7.956;2023-01-29T04:24:44;104409.00;;;4.58;100.00
64298;BME280;50639;53.270;7.956;2023-01-29T04:38:56;104368.72;;;4.62;100.00
64298;BME280;50639;53.270;7.956;2023-01-29T04:41:39;104425.47;;;4.64;100.00
64298;BME280;50639;53.270;7.956;2023-01-29T04:44:12;104380.22;;;4.63;100.00
64298;BME280;50639;53.270;7.956;2023-01-29T04:47:34;104490.72;;;4.71;100.00
64298;BME280;50639;53.270;7.956;2023-01-29T04:50:02;104405.63;;;4.68;100.00
64298;BME280;50639;53.270;7.956;2023-01-29T04:55:20;104323.94;;;4.67;100.00
64298;BME280;50639;53.270;7.956;2023-01-29T04:58:02;104378.75;;;4.71;100.00
64298;BME280;50639;53.270;7.956;2023-01-29T05:00:34;104232.56;;;4.65;100.00
64298;BME280;50639;53.270;7.956;2023-01-29T05:03:01;104279.38;;;4.69;100.00
64298;BME280;50639;53.270;7.956;2023-01-29T05:05:29;104122.53;;;4.63;100.00
64298;BME280;50639;53.270;7.956;2023-01-29T05:07:55;104080.88;;;4.62;100.00
64298;BME280;50639;53.270;7.956;2023-01-29T05:10:22;104036.31;;;4.64;100.00
64298;BME280;50639;53.270;7.956;2023-01-29T05:13:10;103979.59;;;4.62;100.00
64298;BME280;50639;53.270;7.956;2023-01-29T05:15:56;103854.06;;;4.54;100.00
64298;BME280;50639;53.270;7.956;2023-01-29T05:18:24;103979.59;;;4.62;100.00
64298;BME280;50639;53.270;7.956;2023-01-29T05:20:50;103882.91;;;4.60;100.00
64298;BME280;50639;53.270;7.956;2023-01-29T05:23:18;103808.50;;;4.57;100.00
64298;BME280;50639;53.270;7.956;2023-01-29T05:25:44;103772.06;;;4.58;100.00
64298;BME280;50639;53.270;7.956;2023-01-29T05:28:11;103774.47;;;4.61;100.00
64298;BME280;50639;53.270;7.956;2023-01-29T05:30:45;103811.44;;;4.65;100.00
64298;BME280;50639;53.270;7.956;2023-01-29T05:35:44;103661.00;;;4.58;100.00
64298;BME280;50639;53.270;7.956;2023-01-29T05:38:10;103700.50;;;4.64;100.00
64298;BME280;50639;53.270;7.956;2023-01-29T05:40:36;103633.88;;;4.64;100.00
64298;BME280;50639;53.270;7.956;2023-01-29T05:43:02;103580.66;;;4.63;100.00
64298;BME280;50639;53.270;7.956;2023-01-29T05:45:27;103524.38;;;4.56;100.00
64298;BME280;50639;53.270;7.956;2023-01-29T05:47:57;103444.44;;;4.56;100.00
64298;BME280;50639;53.270;7.956;2023-01-29T05:50:23;103392.94;;;4.56;100.00
64298;BME280;50639;53.270;7.956;2023-01-29T05:52:55;103288.84;;;4.48;100.00
64298;BME280;50639;53.270;7.956;2023-01-29T05:55:20;103287.97;;;4.47;100.00
64298;BME280;50639;53.270;7.956;2023-01-29T05:57:45;103245.09;;;4.50;100.00
64298;BME280;50639;53.270;7.956;2023-01-29T06:00:11;103239.38;;;4.55;100.00
64298;BME280;50639;53.270;7.956;2023-01-29T06:02:39;103195.06;;;4.54;100.00
64298;BME280;50639;53.270;7.956;2023-01-29T06:05:05;103148.94;;;4.53;100.00
64298;BME280;50639;53.270;7.956;2023-01-29T06:07:31;103115.00;;;4.55;100.00
64298;BME280;50639;53.270;7.956;2023-01-29T06:09:56;103055.22;;;4.48;100.00
64298;BME280;50639;53.270;7.956;2023-01-29T06:12:22;103029.75;;;4.55;100.00
64298;BME280;50639;53.270;7.956;2023-01-29T06:14:47;102925.16;;;4.53;100.00
64298;BME280;50639;53.270;7.956;2023-01-29T06:17:13;102921.53;;;4.54;100.00
64298;BME280;50639;53.270;7.956;2023-01-29T06:19:38;102885.19;;;4.53;100.00
64298;BME280;50639;53.270;7.956;2023-01-29T06:22:03;102902.97;;;4.53;100.00
64298;BME280;50639;53.270;7.956;2023-01-29T06:24:29;102867.25;;;4.55;100.00
64298;BME280;50639;53.270;7.956;2023-01-29T06:26:54;102852.81;;;4.58;100.00
64298;BME280;50639;53.270;7.956;2023-01-29T06:29:20;102815.66;;;4.56;100.00
64298;BME280;50639;53.270;7.956;2023-01-29T06:31:45;102807.38;;;4.59;100.00
64298;BME280;50639;53.270;7.956;2023-01-29T06:34:11;102761.69;;;4.54;100.00
64298;BME280;50639;53.270;7.956;2023-01-29T06:36:36;102722.69;;;4.53;100.00
64298;BME280;50639;53.270;7.956;2023-01-29T06:39:02;102718.47;;;4.51;100.00
64298;BME280;50639;53.270;7.956;2023-01-29T06:41:28;102733.91;;;4.57;100.00
64298;BME280;50639;53.270;7.956;2023-01-29T06:43:54;102676.44;;;4.54;100.00
64298;BME280;50639;53.270;7.956;2023-01-29T06:46:19;102698.28;;;4.58;100.00
64298;BME280;50639;53.270;7.956;2023-01-29T06:48:45;102687.78;;;4.56;100.00
64298;BME280;50639;53.270;7.956;2023-01-29T06:51:10;102625.94;;;4.53;100.00
64298;BME280;50639;53.270;7.956;2023-01-29T06:53:37;102644.75;;;4.51;100.00
64298;BME280;50639;53.270;7.956;2023-01-29T06:56:04;102660.44;;;4.54;100.00
64298;BME280;50639;53.270;7.956;2023-01-29T06:58:29;102629.44;;;4.53;100.00
64298;BME280;50639;53.270;7.956;2023-01-29T07:01:02;102582.63;;;4.51;100.00
64298;BME280;50639;53.270;7.956;2023-01-29T07:03:27;102578.84;;;4.53;100.00
64298;BME280;50639;53.270;7.956;2023-01-29T07:05:53;102525.84;;;4.50;100.00
64298;BME280;50639;53.270;7.956;2023-01-29T07:08:18;102585.88;;;4.54;100.00
64298;BME280;50639;53.270;7.956;2023-01-29T07:10:47;102533.72;;;4.52;100.00
64298;BME280;50639;53.270;7.956;2023-01-29T07:13:12;102545.50;;;4.49;100.00
64298;BME280;50639;53.270;7.956;2023-01-29T07:15:38;102554.88;;;4.53;100.00
64298;BME280;50639;53.270;7.956;2023-01-29T07:18:04;102566.22;;;4.55;100.00
64298;BME280;50639;53.270;7.956;2023-01-29T07:20:37;102545.91;;;4.54;100.00
64298;BME280;50639;53.270;7.956;2023-01-29T07:23:03;102575.22;;;4.54;100.00
64298;BME280;50639;53.270;7.956;2023-01-29T07:25:28;102588.06;;;4.59;100.00
64298;BME280;50639;53.270;7.956;2023-01-29T07:27:55;102569.28;;;4.60;100.00
64298;BME280;50639;53.270;7.956;2023-01-29T07:30:21;102550.78;;;4.59;100.00
64298;BME280;50639;53.270;7.956;2023-01-29T07:32:46;102599.00;;;4.65;100.00
64298;BME280;50639;53.270;7.956;2023-01-29T07:35:12;102600.69;;;4.66;100.00
64298;BME280;50639;53.270;7.956;2023-01-29T07:37:37;102579.50;;;4.65;100.00
64298;BME280;50639;53.270;7.956;2023-01-29T07:40:04;102585.81;;;4.64;100.00
64298;BME280;50639;53.270;7.956;2023-01-29T07:42:35;102571.50;;;4.65;100.00
64298;BME280;50639;53.270;7.956;2023-01-29T07:45:00;102630.00;;;4.66;100.00
64298;BME280;50639;53.270;7.956;2023-01-29T07:47:26;102643.31;;;4.66;100.00
64298;BME280;50639;53.270;7.956;2023-01-29T07:49:51;102677.78;;;4.68;100.00
64298;BME280;50639;53.270;7.956;2023-01-29T07:52:17;102677.66;;;4.69;100.00
64298;BME280;50639;53.270;7.956;2023-01-29T07:54:43;102713.13;;;4.70;100.00
64298;BME280;50639;53.270;7.956;2023-01-29T07:57:08;102776.94;;;4.71;100.00
64298;BME280;50639;53.270;7.956;2023-01-29T07:59:33;102766.28;;;4.71;100.00
64298;BME280;50639;53.270;7.956;2023-01-29T08:01:59;102799.78;;;4.74;100.00
64298;BME280;50639;53.270;7.956;2023-01-29T08:04:24;102943.69;;;4.83;100.00
64298;BME280;50639;53.270;7.956;2023-01-29T08:06:50;102863.47;;;4.77;100.00
64298;BME280;50639;53.270;7.956;2023-01-29T08:09:15;102925.75;;;4.76;100.00
64298;BME280;50639;53.270;7.956;2023-01-29T08:11:41;103012.59;;;4.78;100.00
64298;BME280;50639;53.270;7.956;2023-01-29T08:14:06;103121.44;;;4.83;100.00
64298;BME280;50639;53.270;7.956;2023-01-29T08:16:34;103155.25;;;4.82;100.00
64298;BME280;50639;53.270;7.956;2023-01-29T08:19:00;103181.22;;;4.80;100.00
64298;BME280;50639;53.270;7.956;2023-01-29T08:21:26;103214.16;;;4.79;100.00
64298;BME280;50639;53.270;7.956;2023-01-29T08:23:51;103311.53;;;4.83;100.00
64298;BME280;50639;53.270;7.956;2023-01-29T08:26:17;103303.81;;;4.80;100.00
64298;BME280;50639;53.270;7.956;2023-01-29T08:28:42;103462.38;;;4.86;100.00
64298;BME280;50639;53.270;7.956;2023-01-29T08:31:15;103468.56;;;4.86;100.00
64298;BME280;50639;53.270;7.956;2023-01-29T08:33:41;103529.88;;;4.86;100.00
64298;BME280;50639;53.270;7.956;2023-01-29T08:36:07;103671.66;;;4.91;100.00
64298;BME280;50639;53.270;7.956;2023-01-29T08:38:34;103715.41;;;4.89;100.00
64298;BME280;50639;53.270;7.956;2023-01-29T08:40:59;103738.06;;;4.83;100.00
64298;BME280;50639;53.270;7.956;2023-01-29T08:43:25;103858.75;;;4.85;100.00
64298;BME280;50639;53.270;7.956;2023-01-29T08:45:50;103948.22;;;4.89;100.00
64298;BME280;50639;53.270;7.956;2023-01-29T08:48:16;104009.31;;;4.92;100.00
64298;BME280;50639;53.270;7.956;2023-01-29T08:50:41;104059.00;;;4.93;100.00
64298;BME280;50639;53.270;7.956;2023-01-29T08:53:08;104110.66;;;4.92;100.00
64298;BME280;50639;53.270;7.956;2023-01-29T08:55:35;104297.72;;;4.99;100.00
64298;BME280;50639;53.270;7.956;2023-01-29T08:58:02;104275.75;;;4.95;100.00
64298;BME280;50639;53.270;7.956;2023-01-29T09:00:28;104437.38;;;4.98;100.00
64298;BME280;50639;53.270;7.956;2023-01-29T09:02:53;104509.50;;;4.96;100.00
64298;BME280;50639;53.270;7.956;2023-01-29T09:05:19;104583.03;;;5.00;100.00
64298;BME280;50639;53.270;7.956;2023-01-29T09:07:44;104691.25;;;5.04;100.00
64298;BME280;50639;53.270;7.956;2023-01-29T09:10:10;104790.72;;;5.06;100.00
64298;BME280;50639;53.270;7.956;2023-01-29T09:12:36;104932.56;;;5.13;100.00
64298;BME280;50639;53.270;7.956;2023-01-29T09:15:02;105064.69;;;5.20;100.00
64298;BME280;50639;53.270;7.956;2023-01-29T09:17:28;105104.56;;;5.23;100.00
64298;BME280;50639;53.270;7.956;2023-01-29T09:19:53;105012.19;;;5.21;100.00
64298;BME280;50639;53.270;7.956;2023-01-29T09:22:19;105064.53;;;5.23;100.00
64298;BME280;50639;53.270;7.956;2023-01-29T09:24:47;105064.59;;;5.22;100.00
64298;BME280;50639;53.270;7.956;2023-01-29T09:27:12;105193.19;;;5.28;100.00
64298;BME280;50639;53.270;7.956;2023-01-29T09:29:38;105395.25;;;5.43;100.00
64298;BME280;50639;53.270;7.956;2023-01-29T09:32:04;105385.06;;;5.50;100.00
64298;BME280;50639;53.270;7.956;2023-01-29T09:34:29;105392.94;;;5.53;100.00
64298;BME280;50639;53.270;7.956;2023-01-29T09:36:55;105342.34;;;5.50;100.00
64298;BME280;50639;53.270;7.956;2023-01-29T09:39:20;105535.94;;;5.58;100.00
64298;BME280;50639;53.270;7.956;2023-01-29T09:41:55;105613.16;;;5.63;100.00
64298;BME280;50639;53.270;7.956;2023-01-29T09:47:24;105660.56;;;5.58;100.00
64298;BME280;50639;53.270;7.956;2023-01-29T09:49:56;105779.66;;;5.62;100.00
64298;BME280;50639;53.270;7.956;2023-01-29T09:55:03;105799.81;;;5.69;100.00
64298;BME280;50639;53.270;7.956;2023-01-29T09:57:47;105830.78;;;5.73;100.00
64298;BME280;50639;53.270;7.956;2023-01-29T10:00:33;105853.06;;;5.72;100.00
64298;BME280;50639;53.270;7.956;2023-01-29T10:03:14;105999.72;;;5.78;100.00
64298;BME280;50639;53.270;7.956;2023-01-29T10:05:52;106118.59;;;5.89;100.00
64298;BME280;50639;53.270;7.956;2023-01-29T10:22:41;106038.28;;;5.72;100.00
64298;BME280;50639;53.270;7.956;2023-01-29T10:25:16;106351.38;;;5.82;100.00
64298;BME280;50639;53.270;7.956;2023-01-29T10:27:48;106434.03;;;5.86;100.00
64298;BME280;50639;53.270;7.956;2023-01-29T10:30:27;106609.16;;;5.97;100.00
64298;BME280;50639;53.270;7.956;2023-01-29T10:32:57;106791.38;;;6.09;100.00
64298;BME280;50639;53.270;7.956;2023-01-29T10:35:30;106861.56;;;6.16;100.00
64298;BME280;50639;53.270;7.956;2023-01-29T10:37:58;106885.50;;;6.20;100.00
64298;BME280;50639;53.270;7.956;2023-01-29T10:40:36;106639.72;;;6.14;100.00
64298;BME280;50639;53.270;7.956;2023-01-29T10:43:11;106420.75;;;6.07;100.00
64298;BME280;50639;53.270;7.956;2023-01-29T10:48:41;106362.97;;;6.04;100.00
64298;BME280;50639;53.270;7.956;2023-01-29T10:56:43;106255.59;;;5.93;100.00
64298;BME280;50639;53.270;7.956;2023-01-29T11:02:00;106127.53;;;5.88;100.00
64298;BME280;50639;53.270;7.956;2023-01-29T11:04:27;106413.84;;;6.01;100.00
64298;BME280;50639;53.270;7.956;2023-01-29T11:06:54;106310.66;;;5.97;100.00
64298;BME280;50639;53.270;7.956;2023-01-29T11:09:30;106425.44;;;6.02;100.00
64298;BME280;50639;53.270;7.956;2023-01-29T11:12:00;106386.31;;;5.99;100.00
64298;BME280;50639;53.270;7.956;2023-01-29T11:17:34;106502.72;;;6.08;100.00
64298;BME280;50639;53.270;7.956;2023-01-29T11:19:59;106343.47;;;6.01;100.00
64298;BME280;50639;53.270;7.956;2023-01-29T11:22:27;106308.72;;;6.01;100.00
64298;BME280;50639;53.270;7.956;2023-01-29T11:25:25;106348.72;;;6.04;100.00
64298;BME280;50639;53.270;7.956;2023-01-29T11:27:55;106251.69;;;6.02;100.00
64298;BME280;50639;53.270;7.956;2023-01-29T11:30:33;106237.38;;;6.03;100.00
64298;BME280;50639;53.270;7.956;2023-01-29T11:35:33;106665.03;;;6.27;100.00
64298;BME280;50639;53.270;7.956;2023-01-29T11:38:29;106328.53;;;6.17;100.00
64298;BME280;50639;53.270;7.956;2023-01-29T11:41:06;106420.25;;;6.19;100.00
64298;BME280;50639;53.270;7.956;2023-01-29T11:43:32;106447.75;;;6.22;100.00
64298;BME280;50639;53.270;7.956;2023-01-29T11:46:01;106254.69;;;6.14;100.00
64298;BME280;50639;53.270;7.956;2023-01-29T11:48:38;106353.47;;;6.17;100.00
64298;BME280;50639;53.270;7.956;2023-01-29T11:51:05;106393.47;;;6.20;100.00
64298;BME280;50639;53.270;7.956;2023-01-29T11:53:41;106297.34;;;6.17;100.00
64298;BME280;50639;53.270;7.956;2023-01-29T11:56:21;106268.00;;;6.16;100.00
64298;BME280;50639;53.270;7.956;2023-01-29T11:58:48;106225.28;;;6.14;100.00
64298;BME280;50639;53.270;7.956;2023-01-29T12:01:17;106283.09;;;6.17;100.00
64298;BME280;50639;53.270;7.956;2023-01-29T12:03:50;106320.41;;;6.20;100.00
64298;BME280;50639;53.270;7.956;2023-01-29T12:06:21;106236.78;;;6.16;100.00
64298;BME280;50639;53.270;7.956;2023-01-29T12:08:59;106249.13;;;6.19;100.00
64298;BME280;50639;53.270;7.956;2023-01-29T12:11:33;106244.66;;;6.19;100.00
64298;BME280;50639;53.270;7.956;2023-01-29T12:14:04;106325.56;;;6.24;100.00
64298;BME280;50639;53.270;7.956;2023-01-29T12:16:35;106376.94;;;6.31;100.00
64298;BME280;50639;53.270;7.956;2023-01-29T12:19:23;106235.44;;;6.26;100.00
64298;BME280;50639;53.270;7.956;2023-01-29T12:21:56;106149.13;;;6.23;100.00
64298;BME280;50639;53.270;7.956;2023-01-29T12:37:51;105654.25;;;6.12;100.00
64298;BME280;50639;53.270;7.956;2023-01-29T12:40:24;105623.09;;;6.11;100.00
64298;BME280;50639;53.270;7.956;2023-01-29T12:42:55;105536.72;;;6.10;100.00
64298;BME280;50639;53.270;7.956;2023-01-29T12:45:24;105652.25;;;6.15;100.00
64298;BME280;50639;53.270;7.956;2023-01-29T12:47:54;105777.44;;;6.24;100.00
64298;BME280;50639;53.270;7.956;2023-01-29T12:50:25;105620.81;;;6.20;100.00
64298;BME280;50639;53.270;7.956;2023-01-29T12:53:07;105565.59;;;6.19;100.00
64298;BME280;50639;53.270;7.956;2023-01-29T12:55:51;105509.47;;;6.19;100.00
64298;BME280;50639;53.270;7.956;2023-01-29T12:58:28;105157.38;;;6.07;100.00
64298;BME280;50639;53.270;7.956;2023-01-29T13:01:09;105087.13;;;6.05;100.00
64298;BME280;50639;53.270;7.956;2023-01-29T13:03:54;105131.44;;;6.09;100.00
64298;BME280;50639;53.270;7.956;2023-01-29T13:09:14;104912.41;;;6.08;100.00
64298;BME280;50639;53.270;7.956;2023-01-29T13:11:58;104646.56;;;6.01;100.00
64298;BME280;50639;53.270;7.956;2023-01-29T13:14:46;104721.72;;;6.09;100.00
64298;BME280;50639;53.270;7.956;2023-01-29T13:20:13;104525.81;;;6.08;100.00
64298;BME280;50639;53.270;7.956;2023-01-29T13:26:20;104298.44;;;6.00;100.00
64298;BME280;50639;53.270;7.956;2023-01-29T13:28:54;104193.84;;;5.94;100.00
64298;BME280;50639;53.270;7.956;2023-01-29T13:31:53;104151.97;;;5.94;100.00
64298;BME280;50639;53.270;7.956;2023-01-29T13:34:34;103986.31;;;5.83;100.00
64298;BME280;50639;53.270;7.956;2023-01-29T13:40:04;104010.16;;;5.86;100.00
64298;BME280;50639;53.270;7.956;2023-01-29T13:43:13;104016.25;;;5.88;100.00
64298;BME280;50639;53.270;7.956;2023-01-29T13:46:10;103973.59;;;5.86;100.00
64298;BME280;50639;53.270;7.956;2023-01-29T13:48:55;103992.06;;;5.89;100.00
64298;BME280;50639;53.270;7.956;2023-01-29T13:51:35;104099.38;;;5.95;100.00
64298;BME280;50639;53.270;7.956;2023-01-29T13:54:17;104238.47;;;6.04;100.00
64298;BME280;50639;53.270;7.956;2023-01-29T13:56:56;104194.88;;;6.04;100.00
64298;BME280;50639;53.270;7.956;2023-01-29T13:59:52;104118.34;;;6.03;100.00
64298;BME280;50639;53.270;7.956;2023-01-29T14:02:20;104189.41;;;6.05;100.00
64298;BME280;50639;53.270;7.956;2023-01-29T14:04:46;104170.69;;;6.05;100.00
64298;BME280;50639;53.270;7.956;2023-01-29T14:07:37;104365.06;;;6.14;100.00
64298;BME280;50639;53.270;7.956;2023-01-29T14:12:41;104121.75;;;6.05;100.00
64298;BME280;50639;53.270;7.956;2023-01-29T14:15:16;104137.78;;;6.05;100.00
64298;BME280;50639;53.270;7.956;2023-01-29T14:17:58;104199.97;;;6.07;100.00
64298;BME280;50639;53.270;7.956;2023-01-29T14:20:53;104258.66;;;6.08;100.00
64298;BME280;50639;53.270;7.956;2023-01-29T14:26:02;104156.94;;;5.99;100.00
64298;BME280;50639;53.270;7.956;2023-01-29T14:28:30;104122.59;;;5.94;100.00
64298;BME280;50639;53.270;7.956;2023-01-29T14:30:58;104237.94;;;5.99;100.00
64298;BME280;50639;53.270;7.956;2023-01-29T14:33:30;104227.25;;;5.99;100.00
64298;BME280;50639;53.270;7.956;2023-01-29T14:35:57;104237.94;;;5.99;100.00
64298;BME280;50639;53.270;7.956;2023-01-29T14:38:26;104151.72;;;5.97;100.00
64298;BME280;50639;53.270;7.956;2023-01-29T14:41:03;104037.34;;;5.91;100.00
64298;BME280;50639;53.270;7.956;2023-01-29T14:43:29;103962.19;;;5.84;100.00
64298;BME280;50639;53.270;7.956;2023-01-29T14:49:00;103795.06;;;5.71;100.00
64298;BME280;50639;53.270;7.956;2023-01-29T14:51:26;103763.00;;;5.71;100.00
64298;BME280;50639;53.270;7.956;2023-01-29T14:54:16;103694.09;;;5.65;100.00
64298;BME280;50639;53.270;7.956;2023-01-29T14:56:56;103576.91;;;5.62;100.00
64298;BME280;50639;53.270;7.956;2023-01-29T14:59:33;103517.03;;;5.55;100.00
64298;BME280;50639;53.270;7.956;2023-01-29T15:02:04;103532.44;;;5.51;100.00
64298;BME280;50639;53.270;7.956;2023-01-29T15:04:43;103415.81;;;5.42;100.00
64298;BME280;50639;53.270;7.956;2023-01-29T15:22:51;103118.38;;;5.27;100.00
64298;BME280;50639;53.270;7.956;2023-01-29T15:25:17;103156.41;;;5.29;100.00
64298;BME280;50639;53.270;7.956;2023-01-29T15:27:44;103090.84;;;5.27;100.00
64298;BME280;50639;53.270;7.956;2023-01-29T15:30:15;103001.41;;;5.23;100.00